Time;durP1;ratioP1;P1;durP2;ratioP2;P2;SDS_P1;SDS_P2;PMS_P1;PMS_P2;Temp;Humidity;BMP_temperature;BMP_pressure;BME280_temperature;BME280_humidity;BME280_pressure;Samples;Min_cycle;Max_cycle;Signal;HPM_P1;HPM_P2
2022/09/22 00:02:59;;;;;;;13.90;8.70;;;;;;;11.72;69.30;99526.95;226690;1241;140072;-59
2022/09/22 00:08:02;;;;;;;12.10;8.30;;;;;;;11.71;69.38;99527.52;227366;1219;141767;-56
2022/09/22 00:13:05;;;;;;;13.60;8.70;;;;;;;11.68;69.42;99529.29;225965;1245;139677;-56
2022/09/22 00:18:08;;;;;;;15.40;9.10;;;;;;;11.64;69.19;99524.23;226008;1243;140206;-58
2022/09/22 00:23:11;;;;;;;13.70;8.70;;;;;;;11.58;69.39;99524.34;227321;1230;139443;-60
2022/09/22 00:28:14;;;;;;;13.70;8.10;;;;;;;11.59;69.34;99528.05;226242;1238;139609;-59
2022/09/22 00:33:17;;;;;;;13.00;7.70;;;;;;;11.55;69.07;99528.59;226590;1241;139538;-59
2022/09/22 00:38:20;;;;;;;13.60;8.90;;;;;;;11.50;68.75;99523.62;226512;1237;139966;-59
2022/09/22 00:43:25;;;;;;;19.30;10.00;;;;;;;11.45;69.24;99525.15;225989;1241;139558;-59
2022/09/22 00:48:30;;;;;;;;;;;;;;;11.37;69.22;99531.43;226151;1238;138866;-59
2022/09/22 00:53:34;;;;;;;15.00;10.00;;;;;;;11.36;69.42;99530.95;226712;1236;126221;-59
2022/09/22 00:58:42;;;;;;;15.90;10.90;;;;;;;11.40;69.58;99532.69;227575;1226;140082;-59
2022/09/22 01:03:48;;;;;;;20.80;10.70;;;;;;;11.43;69.43;99538.92;226111;1236;138867;-60
2022/09/22 01:08:52;;;;;;;19.30;11.30;;;;;;;11.39;69.74;99535.95;227146;1235;140188;-59
2022/09/22 01:14:17;;;;;;;18.60;11.70;;;;;;;11.32;69.68;99534.38;226090;1241;139031;-59
2022/09/22 01:19:29;;;;;;;16.50;11.10;;;;;;;11.30;69.83;99534.30;226175;1245;139776;-57
2022/09/22 01:25:05;;;;;;;15.30;10.30;;;;;;;11.26;69.50;99537.77;226406;1234;139511;-57
2022/09/22 01:30:41;;;;;;;16.30;10.10;;;;;;;11.17;69.45;99541.44;227337;1235;140079;-57
2022/09/22 01:36:16;;;;;;;16.30;10.40;;;;;;;11.16;69.75;99542.08;226121;1237;139628;-57
2022/09/22 01:41:37;;;;;;;17.80;10.90;;;;;;;11.21;69.81;99538.02;226067;1241;141301;-57
2022/09/22 01:46:50;;;;;;;15.50;9.70;;;;;;;11.22;69.82;99535.15;226439;1236;139481;-57
2022/09/22 01:51:58;;;;;;;14.90;10.50;;;;;;;11.22;69.92;99527.17;226239;1240;139398;-57
2022/09/22 01:57:13;;;;;;;17.80;10.60;;;;;;;11.21;69.89;99521.70;225997;1237;139361;-58
2022/09/22 02:02:22;;;;;;;18.30;10.10;;;;;;;11.18;69.51;99520.79;226320;1244;139630;-58
2022/09/22 02:07:32;;;;;;;19.30;10.20;;;;;;;11.14;69.83;99519.10;226466;1242;140144;-56
2022/09/22 02:12:36;;;;;;;17.90;10.20;;;;;;;11.11;69.63;99522.95;226097;1245;140525;-58
2022/09/22 02:17:39;;;;;;;16.50;11.30;;;;;;;11.08;69.31;99522.64;226123;1248;139585;-57
2022/09/22 02:22:42;;;;;;;18.40;11.00;;;;;;;11.04;69.80;99521.92;226548;1237;139487;-57
2022/09/22 02:27:46;;;;;;;21.80;11.00;;;;;;;11.05;69.75;99519.25;226691;1238;140048;-57
2022/09/22 02:32:53;;;;;;;19.30;11.20;;;;;;;10.97;69.52;99524.82;226265;1241;140046;-61
2022/09/22 02:38:14;;;;;;;17.30;11.10;;;;;;;10.89;69.70;99522.24;226208;1237;140268;-62
2022/09/22 02:43:19;;;;;;;16.10;11.20;;;;;;;10.86;69.68;99519.59;226505;1241;141606;-61
2022/09/22 02:48:27;;;;;;;16.60;11.30;;;;;;;10.85;69.95;99520.52;226437;1233;141089;-60
2022/09/22 02:53:33;;;;;;;20.70;11.80;;;;;;;10.86;69.72;99523.28;226176;1232;139883;-59
2022/09/22 02:58:36;;;;;;;17.50;11.00;;;;;;;10.82;69.95;99525.09;225984;1236;139863;-58
2022/09/22 03:03:40;;;;;;;16.30;11.70;;;;;;;10.78;69.94;99523.42;226454;1243;139992;-59
2022/09/22 03:08:42;;;;;;;18.00;11.90;;;;;;;10.74;69.86;99525.55;226656;1241;140677;-58
2022/09/22 03:13:45;;;;;;;17.00;11.80;;;;;;;10.71;70.21;99525.91;226295;1243;139972;-59
2022/09/22 03:18:48;;;;;;;18.00;10.60;;;;;;;10.67;69.84;99526.83;226042;1238;141054;-59
2022/09/22 03:23:51;;;;;;;17.10;11.50;;;;;;;10.67;69.98;99526.86;226397;1228;140245;-59
2022/09/22 03:28:54;;;;;;;21.30;12.20;;;;;;;10.70;70.32;99527.73;226578;1241;140216;-59
2022/09/22 03:33:57;;;;;;;20.90;11.80;;;;;;;10.69;70.11;99524.23;226191;1239;139856;-60
2022/09/22 03:39:00;;;;;;;17.30;11.80;;;;;;;10.67;69.88;99526.48;226169;1243;139282;-60
2022/09/22 03:44:04;;;;;;;18.60;12.20;;;;;;;10.63;70.27;99530.59;226486;1240;139398;-60
2022/09/22 03:49:08;;;;;;;18.40;12.10;;;;;;;10.63;70.50;99533.95;226605;1238;139504;-60
2022/09/22 03:54:11;;;;;;;19.50;12.20;;;;;;;10.68;70.53;99537.09;226332;1234;140514;-58
2022/09/22 03:59:15;;;;;;;22.50;13.50;;;;;;;10.68;70.57;99531.76;227510;1229;140196;-61
2022/09/22 04:04:18;;;;;;;17.80;11.90;;;;;;;10.71;70.39;99536.94;226495;1230;139262;-60
2022/09/22 04:09:21;;;;;;;15.50;11.40;;;;;;;10.74;70.72;99533.73;226628;1241;140518;-59
2022/09/22 04:14:24;;;;;;;19.50;12.20;;;;;;;10.79;70.79;99539.35;226314;1238;139160;-59
2022/09/22 04:19:27;;;;;;;18.90;11.80;;;;;;;10.76;70.57;99537.71;226169;1242;139242;-59
2022/09/22 04:24:30;;;;;;;16.20;9.30;;;;;;;10.71;70.56;99542.59;227362;1234;139912;-58
2022/09/22 04:29:33;;;;;;;12.00;9.10;;;;;;;10.73;70.60;99543.17;226531;1233;140295;-58
2022/09/22 04:34:36;;;;;;;13.80;9.20;;;;;;;10.80;70.54;99542.30;226392;1248;141467;-58
2022/09/22 04:39:39;;;;;;;14.10;10.30;;;;;;;10.80;70.19;99546.91;226170;1235;139094;-58
2022/09/22 04:44:42;;;;;;;18.20;11.50;;;;;;;10.76;70.54;99540.20;227238;1226;140029;-56
2022/09/22 04:49:45;;;;;;;14.10;9.70;;;;;;;10.73;70.33;99542.30;226378;1240;139650;-56
2022/09/22 04:54:48;;;;;;;14.90;9.20;;;;;;;10.74;70.74;99544.73;226316;1243;140909;-57
2022/09/22 04:59:51;;;;;;;16.20;9.50;;;;;;;10.74;70.50;99546.16;226176;1241;139728;-57
2022/09/22 05:04:54;;;;;;;17.50;9.30;;;;;;;10.75;70.59;99547.37;226408;1234;139756;-56
2022/09/22 05:09:58;;;;;;;13.10;8.70;;;;;;;10.76;70.58;99543.40;227529;1233;140201;-56
2022/09/22 05:15:01;;;;;;;12.70;8.20;;;;;;;10.80;70.63;99543.53;227235;1226;139527;-56
2022/09/22 05:20:04;;;;;;;13.70;8.10;;;;;;;10.83;70.89;99547.77;226121;1248;139191;-57
2022/09/22 05:25:16;;;;;;;13.30;8.30;;;;;;;10.84;70.83;99550.77;226286;1236;139345;-56
2022/09/22 05:30:22;;;;;;;12.00;7.00;;;;;;;10.85;70.81;99553.02;226612;1241;139407;-58
2022/09/22 05:35:25;;;;;;;8.80;6.50;;;;;;;10.84;70.65;99556.64;226414;1243;140188;-58
2022/09/22 05:40:29;;;;;;;11.30;6.70;;;;;;;10.85;70.67;99557.06;226046;1244;139570;-59
2022/09/22 05:45:32;;;;;;;9.80;6.70;;;;;;;10.87;70.48;99558.23;226308;1241;139833;-58
2022/09/22 05:50:35;;;;;;;11.20;7.10;;;;;;;10.92;70.69;99557.76;226627;1241;139476;-57
2022/09/22 05:55:39;;;;;;;17.80;8.30;;;;;;;10.95;70.58;99557.98;226324;1242;139444;-58
2022/09/22 06:00:42;;;;;;;12.40;8.00;;;;;;;10.98;70.73;99563.29;227242;1234;139140;-57
2022/09/22 06:05:45;;;;;;;14.20;8.50;;;;;;;10.98;70.38;99567.05;227380;1233;139484;-58
2022/09/22 06:10:50;;;;;;;11.60;7.30;;;;;;;10.98;70.48;99573.09;226761;1241;139610;-57
2022/09/22 06:15:53;;;;;;;10.70;7.10;;;;;;;10.99;70.68;99574.80;226313;1242;139758;-58
2022/09/22 06:20:56;;;;;;;12.10;7.00;;;;;;;11.06;70.56;99576.88;226201;1244;139184;-56
2022/09/22 06:25:59;;;;;;;8.90;5.70;;;;;;;11.15;70.76;99576.40;226229;1242;139281;-58
2022/09/22 06:31:03;;;;;;;7.50;5.00;;;;;;;11.21;70.42;99578.86;227533;1233;138824;-59
2022/09/22 06:36:06;;;;;;;6.10;4.10;;;;;;;11.26;70.44;99579.13;226322;1242;139864;-57
2022/09/22 06:41:09;;;;;;;11.90;6.80;;;;;;;11.30;70.43;99580.86;226367;1242;138672;-57
2022/09/22 06:46:12;;;;;;;11.10;6.80;;;;;;;11.36;70.12;99584.98;226208;1242;138864;-58
2022/09/22 06:51:16;;;;;;;16.50;7.40;;;;;;;11.37;69.94;99591.83;226044;1243;142550;-57
2022/09/22 06:56:20;;;;;;;11.00;6.00;;;;;;;11.43;70.09;99591.52;226182;1240;141718;-58
2022/09/22 07:01:23;;;;;;;11.60;5.70;;;;;;;11.45;69.85;99592.80;227404;1229;144223;-57
2022/09/22 07:06:26;;;;;;;16.10;7.70;;;;;;;11.49;69.97;99591.49;226165;1235;139572;-57
2022/09/22 07:11:29;;;;;;;12.50;6.20;;;;;;;11.54;70.02;99597.27;226233;1241;139200;-58
2022/09/22 07:16:32;;;;;;;17.10;6.10;;;;;;;11.60;69.96;99591.92;226347;1237;139793;-58
2022/09/22 07:21:37;;;;;;;6.50;3.80;;;;;;;11.75;70.02;99588.42;226238;1250;139230;-58
2022/09/22 07:26:40;;;;;;;5.90;4.20;;;;;;;11.91;69.59;99591.98;226160;1236;139401;-59
2022/09/22 07:31:43;;;;;;;8.30;3.60;;;;;;;11.98;69.59;99591.76;226125;1244;139241;-56
2022/09/22 07:36:47;;;;;;;8.60;3.50;;;;;;;12.00;69.14;99590.92;226137;1243;139911;-57
2022/09/22 07:41:51;;;;;;;6.10;4.00;;;;;;;12.03;69.12;99589.83;227401;1234;143048;-57
2022/09/22 07:46:54;;;;;;;7.40;4.50;;;;;;;12.13;69.11;99588.00;226305;1243;139010;-57
2022/09/22 07:51:57;;;;;;;9.60;4.60;;;;;;;12.21;68.98;99581.48;227091;1240;138980;-57
2022/09/22 07:57:01;;;;;;;5.40;4.00;;;;;;;12.25;68.73;99583.38;227252;1235;139981;-60
2022/09/22 08:02:04;;;;;;;5.40;3.80;;;;;;;12.26;68.90;99586.67;226611;1241;139669;-58
2022/09/22 08:07:07;;;;;;;4.00;3.20;;;;;;;12.29;68.41;99591.52;226301;1234;139020;-57
2022/09/22 08:12:13;;;;;;;7.10;3.20;;;;;;;12.26;68.26;99596.45;226136;1236;138942;-56
2022/09/22 08:17:17;;;;;;;5.30;3.20;;;;;;;12.28;68.09;99605.80;226315;1241;139854;-57
2022/09/22 08:22:21;;;;;;;5.10;3.30;;;;;;;12.40;68.37;99597.38;225970;1240;139759;-56
2022/09/22 08:27:25;;;;;;;5.90;3.30;;;;;;;12.55;68.22;99599.89;226294;1236;138968;-58
2022/09/22 08:32:29;;;;;;;6.20;3.10;;;;;;;12.67;67.94;99604.48;226155;1245;139230;-57
2022/09/22 08:37:32;;;;;;;3.90;2.40;;;;;;;12.78;67.87;99601.84;226193;1238;138543;-57
2022/09/22 08:42:35;;;;;;;3.60;2.20;;;;;;;12.88;67.50;99593.59;226357;1233;139281;-58
2022/09/22 08:53:11;;;;;;;5.80;3.50;;;;;;;13.05;67.14;99592.16;225747;1240;140186;-57
2022/09/22 08:58:14;;;;;;;5.30;3.10;;;;;;;13.11;66.75;99585.55;226142;1245;139839;-57
2022/09/22 09:03:26;;;;;;;5.40;3.20;;;;;;;13.12;66.50;99579.93;226426;1241;138654;-59
2022/09/22 09:08:44;;;;;;;3.30;1.80;;;;;;;13.17;66.45;99575.15;226415;1243;139377;-59
2022/09/22 09:14:02;;;;;;;5.30;2.00;;;;;;;13.29;66.16;99567.61;226058;1241;139514;-57
2022/09/22 09:19:24;;;;;;;3.00;2.30;;;;;;;13.48;66.06;99560.53;227183;1242;139315;-57
2022/09/22 09:24:35;;;;;;;4.80;2.70;;;;;;;13.65;65.70;99563.34;225958;1240;139131;-56
2022/09/22 09:30:16;;;;;;;4.20;2.70;;;;;;;13.68;65.24;99559.91;226243;1240;138655;-57
2022/09/22 09:35:25;;;;;;;6.40;4.00;;;;;;;13.74;65.27;99565.39;227317;1237;138523;-55
2022/09/22 09:40:28;;;;;;;3.30;2.00;;;;;;;13.78;64.90;99564.61;226108;1244;140278;-58
2022/09/22 09:45:49;;;;;;;4.00;2.00;;;;;;;13.74;64.44;99565.95;226120;1234;138991;-57
2022/09/22 09:50:52;;;;;;;3.90;1.90;;;;;;;13.65;64.30;99569.03;226224;1244;139212;-56
2022/09/22 09:55:54;;;;;;;7.00;1.70;;;;;;;13.53;64.13;99573.77;226358;1247;139592;-56
2022/09/22 10:00:59;;;;;;;5.50;2.00;;;;;;;13.44;64.24;99572.03;226200;1250;138954;-57
2022/09/22 10:06:07;;;;;;;3.10;1.70;;;;;;;13.41;64.34;99569.55;227125;1238;139512;-58
2022/09/22 10:11:13;;;;;;;2.70;1.60;;;;;;;13.40;64.60;99572.27;226292;1241;139792;-57
2022/09/22 10:16:29;;;;;;;1.80;1.60;;;;;;;13.44;64.84;99574.00;225818;1239;140089;-57
2022/09/22 10:21:35;;;;;;;2.00;1.50;;;;;;;13.54;64.62;99573.48;227156;1235;139701;-57
2022/09/22 10:26:54;;;;;;;1.80;1.50;;;;;;;13.69;64.75;99569.30;226095;1242;138845;-57
2022/09/22 10:32:14;;;;;;;1.60;1.40;;;;;;;13.92;64.52;99565.11;226225;1241;139822;-58
2022/09/22 10:37:26;;;;;;;2.10;1.70;;;;;;;14.32;64.37;99551.47;226463;1248;138854;-57
2022/09/22 10:42:42;;;;;;;2.30;1.40;;;;;;;14.68;63.97;99546.80;226063;1237;139509;-58
2022/09/22 10:48:21;;;;;;;4.80;2.00;;;;;;;14.75;63.19;99547.05;226095;1240;139089;-58
2022/09/22 10:53:50;;;;;;;4.10;1.90;;;;;;;14.59;62.55;99547.48;226503;1235;139369;-57
2022/09/22 10:59:01;;;;;;;3.20;2.20;;;;;;;14.39;62.37;99544.74;226205;1242;139398;-58
2022/09/22 11:04:34;;;;;;;5.60;1.90;;;;;;;14.27;62.25;99548.23;226136;1245;139642;-58
2022/09/22 11:15:10;;;;;;;2.10;1.70;;;;;;;14.06;62.19;99540.92;226508;1247;142196;-57
2022/09/22 11:20:20;;;;;;;2.10;1.50;;;;;;;14.00;62.11;99535.31;226372;1244;139307;-57
2022/09/22 11:25:54;;;;;;;6.20;2.60;;;;;;;13.97;61.91;99537.30;227153;1234;140402;-58
2022/09/22 11:30:57;;;;;;;10.30;6.80;;;;;;;13.96;62.23;99542.02;226043;1239;140296;-56
2022/09/22 11:36:26;;;;;;;4.20;2.30;;;;;;;14.00;62.69;99538.67;226719;1234;141155;-58
2022/09/22 11:41:53;;;;;;;2.00;1.70;;;;;;;13.99;62.76;99537.83;227556;1231;140050;-57
2022/09/22 11:47:05;;;;;;;3.10;1.90;;;;;;;13.88;62.88;99529.12;226982;1222;139659;-57
2022/09/22 11:52:14;;;;;;;5.60;1.60;;;;;;;13.84;63.07;99524.56;226196;1238;141553;-56
2022/09/22 11:57:23;;;;;;;3.70;1.90;;;;;;;13.82;63.00;99527.43;226505;1235;139577;-55
2022/09/22 12:02:34;;;;;;;5.50;1.70;;;;;;;13.85;63.36;99528.32;226348;1241;140259;-55
2022/09/22 12:07:44;;;;;;;5.80;1.80;;;;;;;14.10;63.63;99531.39;226068;1243;141478;-57
2022/09/22 12:12:50;;;;;;;6.00;1.80;;;;;;;14.14;63.40;99528.05;226313;1241;139366;-57
2022/09/22 12:18:09;;;;;;;3.60;2.10;;;;;;;14.02;63.17;99521.95;226289;1246;139486;-56
2022/09/22 12:23:15;;;;;;;4.20;2.40;;;;;;;13.87;63.32;99529.96;226148;1235;138964;-58
2022/09/22 12:28:24;;;;;;;4.50;2.00;;;;;;;13.69;63.48;99532.54;225968;1237;139796;-57
2022/09/22 12:33:28;;;;;;;3.10;2.00;;;;;;;13.61;63.67;99526.70;226010;1240;140205;-57
2022/09/22 12:38:32;;;;;;;4.40;2.40;;;;;;;13.63;64.07;99520.33;226152;1236;140227;-56
2022/09/22 12:43:36;;;;;;;3.50;1.80;;;;;;;13.68;64.39;99510.70;226299;1245;139587;-57
2022/09/22 12:48:42;;;;;;;3.70;1.90;;;;;;;13.87;64.38;99510.33;225949;1241;138955;-58
2022/09/22 12:53:45;;;;;;;7.10;2.30;;;;;;;14.28;64.43;99499.48;225978;1244;138851;-57
2022/09/22 12:58:53;;;;;;;2.60;1.70;;;;;;;14.75;63.93;99498.80;225949;1237;139659;-57
2022/09/22 13:04:15;;;;;;;4.00;1.90;;;;;;;15.17;63.04;99490.03;225478;1221;138746;-72
2022/09/22 13:09:24;;;;;;;3.20;1.90;;;;;;;15.43;62.51;99492.20;227310;1234;138852;-76
2022/09/22 13:15:07;;;;;;;3.30;2.10;;;;;;;15.55;61.61;99491.82;228108;1208;140133;-66
2022/09/22 13:20:22;;;;;;;2.60;2.20;;;;;;;15.36;60.92;99489.16;225806;1241;139603;-66
2022/09/22 13:33:41;;;;;;;3.70;2.40;;;;;;;15.48;60.96;99476.66;223284;1253;635881;-66
2022/09/22 13:38:49;;;;;;;3.70;2.20;;;;;;;15.44;60.64;99477.30;225377;1244;138045;-67
2022/09/22 13:44:01;;;;;;;3.80;2.60;;;;;;;15.45;60.43;99477.98;226296;1238;138710;-67
2022/09/22 13:49:08;;;;;;;5.80;2.50;;;;;;;15.42;60.36;99477.52;226603;1242;139563;-68
2022/09/22 13:54:18;;;;;;;3.00;2.30;;;;;;;15.42;60.36;99475.73;226225;1245;138592;-66
2022/09/22 13:59:21;;;;;;;3.70;2.80;;;;;;;15.45;60.55;99471.87;227316;1242;138546;-67
2022/09/22 14:04:26;;;;;;;4.60;2.60;;;;;;;15.50;60.67;99469.16;226208;1250;138153;-68
2022/09/22 14:09:29;;;;;;;5.90;3.30;;;;;;;15.49;60.77;99466.20;227385;1236;139192;-66
2022/09/22 14:14:32;;;;;;;4.70;2.90;;;;;;;15.44;60.40;99468.71;226171;1239;138469;-67
2022/09/22 14:20:01;;;;;;;6.20;2.90;;;;;;;15.33;60.51;99464.36;225933;1241;138398;-68
2022/09/22 14:25:06;;;;;;;3.80;3.00;;;;;;;15.24;60.62;99470.42;226026;1245;139355;-66
2022/09/22 14:30:16;;;;;;;5.90;3.00;;;;;;;15.17;60.66;99477.02;225950;1243;138898;-65
2022/09/22 14:35:30;;;;;;;5.70;3.10;;;;;;;15.09;60.74;99472.38;225949;1244;138342;-66
2022/09/22 14:40:34;;;;;;;6.50;2.90;;;;;;;15.00;60.66;99468.59;227301;1238;138060;-65
2022/09/22 14:45:55;;;;;;;5.90;2.60;;;;;;;14.98;60.65;99473.27;225846;1241;138245;-66
2022/09/22 14:51:12;;;;;;;7.00;3.20;;;;;;;14.99;60.80;99472.83;227071;1234;138957;-65
2022/09/22 14:56:27;;;;;;;7.90;4.60;;;;;;;15.03;60.99;99471.60;225887;1245;138349;-66
2022/09/22 15:06:55;;;;;;;6.20;2.90;;;;;;;15.01;60.81;99481.41;225943;1251;138724;-66
2022/09/22 15:12:01;;;;;;;8.30;4.70;;;;;;;14.97;60.78;99479.73;227133;1229;138441;-66
2022/09/22 15:23:02;;;;;;;6.10;2.70;;;;;;;15.04;61.16;99479.90;225962;1236;138848;-66
2022/09/22 15:28:12;;;;;;;6.50;3.10;;;;;;;15.04;61.11;99476.91;225906;1252;138915;-65
2022/09/22 15:33:16;;;;;;;5.60;2.80;;;;;;;15.04;61.18;99482.63;225893;1241;139826;-66
2022/09/22 15:38:19;;;;;;;7.20;3.20;;;;;;;15.04;61.17;99484.40;226940;1236;138317;-66
2022/09/22 15:43:28;;;;;;;5.10;3.10;;;;;;;15.03;61.22;99480.20;226050;1236;138557;-65
2022/09/22 15:48:33;;;;;;;6.70;3.30;;;;;;;14.99;61.08;99484.03;225989;1244;138626;-65
2022/09/22 15:53:37;;;;;;;7.70;3.60;;;;;;;14.97;61.21;99488.70;227226;1233;139182;-66
2022/09/22 15:58:42;;;;;;;9.70;4.70;;;;;;;14.96;61.34;99484.96;226074;1230;138498;-66
2022/09/22 16:03:45;;;;;;;8.10;3.90;;;;;;;14.93;61.35;99487.72;226024;1241;138504;-66
2022/09/22 16:08:50;;;;;;;9.30;3.40;;;;;;;14.87;61.47;99489.38;227182;1237;138443;-66
2022/09/22 16:14:02;;;;;;;6.10;3.00;;;;;;;14.87;61.56;99484.91;226055;1228;138730;-66
2022/09/22 16:19:09;;;;;;;5.40;3.30;;;;;;;14.88;61.68;99482.15;226135;1244;138970;-66
2022/09/22 16:24:12;;;;;;;7.30;3.60;;;;;;;14.88;61.61;99483.63;226026;1251;138787;-66
2022/09/22 16:29:15;;;;;;;7.30;3.90;;;;;;;14.81;61.55;99485.69;226975;1230;139206;-65
2022/09/22 16:34:18;;;;;;;6.50;4.70;;;;;;;14.77;61.58;99480.66;226965;1242;141976;-66
2022/09/22 16:39:21;;;;;;;5.30;3.30;;;;;;;14.73;61.73;99479.84;225871;1245;139272;-67
2022/09/22 16:44:24;;;;;;;6.80;3.60;;;;;;;14.72;61.67;99476.17;226821;1228;138522;-65
2022/09/22 16:49:27;;;;;;;10.80;3.80;;;;;;;14.69;61.63;99478.34;227016;1237;138876;-66
2022/09/22 16:54:33;;;;;;;6.90;3.90;;;;;;;14.65;61.70;99476.52;226387;1243;138893;-65
2022/09/22 16:59:36;;;;;;;;;;;;;;;14.63;61.62;99480.60;226551;1249;138490;-66
2022/09/22 17:04:38;;;;;;;9.70;3.70;;;;;;;14.62;61.66;99480.09;227511;1228;126395;-65
2022/09/22 17:09:41;;;;;;;6.80;3.70;;;;;;;14.61;61.85;99485.39;226387;1236;139271;-64
2022/09/22 17:14:47;;;;;;;9.60;3.80;;;;;;;14.64;61.90;99492.85;227575;1234;138905;-66
2022/09/22 17:19:50;;;;;;;5.40;3.90;;;;;;;14.64;61.89;99500.72;226637;1237;138511;-65
2022/09/22 17:24:54;;;;;;;7.10;4.00;;;;;;;14.59;61.67;99504.94;226673;1230;138822;-66
2022/09/22 17:29:57;;;;;;;7.70;4.00;;;;;;;14.50;61.61;99502.39;226690;1240;138441;-66
2022/09/22 17:35:01;;;;;;;5.60;3.60;;;;;;;14.43;61.66;99499.78;227592;1235;139057;-65
2022/09/22 17:40:07;;;;;;;;;;;;;;;14.39;61.66;99498.11;227446;1228;139025;-65
2022/09/22 17:45:10;;;;;;;7.40;3.50;;;;;;;14.34;61.61;99505.12;226317;1242;125740;-65
2022/09/22 17:55:35;;;;;;;5.40;4.10;;;;;;;14.22;61.44;99510.55;226599;1235;138545;-66
2022/09/22 18:00:38;;;;;;;7.90;4.00;;;;;;;14.17;61.38;99516.45;226241;1237;139993;-67
2022/09/22 18:05:41;;;;;;;6.80;4.10;;;;;;;14.16;61.37;99521.52;226309;1226;139488;-66
2022/09/22 18:10:45;;;;;;;9.30;4.60;;;;;;;14.17;61.34;99527.17;227353;1236;139214;-65
2022/09/22 18:15:48;;;;;;;12.10;4.60;;;;;;;14.19;61.38;99524.34;226274;1234;139401;-64
2022/09/22 18:20:52;;;;;;;10.40;5.10;;;;;;;14.22;61.46;99525.25;226638;1247;138561;-64
2022/09/22 18:26:00;;;;;;;10.50;4.90;;;;;;;14.23;61.32;99520.16;226437;1240;139574;-63
2022/09/22 18:31:04;;;;;;;7.90;4.80;;;;;;;14.20;61.37;99526.98;226346;1243;139191;-64
2022/09/22 18:36:07;;;;;;;9.70;4.70;;;;;;;14.13;61.29;99537.60;226304;1241;138698;-64
2022/09/22 18:41:10;;;;;;;9.80;5.80;;;;;;;14.09;61.34;99539.33;226616;1240;140410;-63
2022/09/22 18:46:19;;;;;;;9.90;5.50;;;;;;;14.04;61.39;99545.59;227445;1235;139130;-64
2022/09/22 18:51:26;;;;;;;10.60;5.90;;;;;;;13.99;61.53;99547.13;226323;1241;138650;-65
2022/09/22 18:56:29;;;;;;;10.50;6.70;;;;;;;13.90;61.55;99544.70;227416;1241;138988;-65
2022/09/22 19:01:35;;;;;;;9.40;6.30;;;;;;;13.83;61.58;99539.83;226632;1241;139146;-62
2022/09/22 19:12:00;;;;;;;9.70;6.60;;;;;;;13.77;61.86;99533.46;227409;1219;139253;-63
2022/09/22 19:17:10;;;;;;;15.90;7.00;;;;;;;13.82;61.89;99538.13;226398;1242;139335;-63
2022/09/22 19:22:14;;;;;;;14.70;7.50;;;;;;;13.80;61.83;99542.53;226582;1234;138961;-62
2022/09/22 19:27:20;;;;;;;11.20;7.00;;;;;;;13.78;61.86;99544.44;226629;1246;139539;-61
2022/09/22 19:32:23;;;;;;;12.30;7.30;;;;;;;13.73;61.75;99546.73;226391;1243;139041;-62
2022/09/22 19:37:28;;;;;;;12.30;7.50;;;;;;;13.67;61.80;99546.08;227545;1241;138474;-61
2022/09/22 19:42:31;;;;;;;12.40;7.40;;;;;;;13.60;61.66;99547.27;227347;1234;138799;-61
2022/09/22 19:47:34;;;;;;;13.60;7.40;;;;;;;13.55;61.78;99544.73;227281;1240;140783;-63
2022/09/22 19:52:37;;;;;;;13.90;7.40;;;;;;;13.53;61.91;99543.45;226289;1229;138965;-62
2022/09/22 19:57:40;;;;;;;11.70;7.80;;;;;;;13.48;61.77;99543.58;226308;1243;139142;-62
2022/09/22 20:02:44;;;;;;;19.10;9.30;;;;;;;13.43;61.87;99544.28;227509;1234;138821;-65
2022/09/22 20:07:47;;;;;;;16.00;7.90;;;;;;;13.41;61.96;99540.85;226296;1235;139424;-63
2022/09/22 20:12:50;;;;;;;12.90;7.40;;;;;;;13.46;62.03;99536.19;226423;1234;139434;-65
2022/09/22 20:17:54;;;;;;;14.30;8.60;;;;;;;13.50;62.17;99536.87;227580;1237;138880;-65
2022/09/22 20:23:01;;;;;;;15.10;9.00;;;;;;;13.49;62.14;99537.45;226282;1238;139508;-65
2022/09/22 20:28:04;;;;;;;14.20;9.50;;;;;;;13.51;62.15;99534.14;226388;1249;139608;-64
2022/09/22 20:33:19;;;;;;;17.30;8.70;;;;;;;13.56;62.31;99531.48;226663;1236;139351;-63
2022/09/22 20:38:22;;;;;;;13.50;9.40;;;;;;;13.56;62.29;99529.91;227539;1238;138792;-63
2022/09/22 20:43:26;;;;;;;17.90;9.60;;;;;;;13.53;62.19;99527.40;226713;1241;139087;-63
2022/09/22 20:48:29;;;;;;;15.30;10.00;;;;;;;13.47;62.10;99529.05;226683;1238;138706;-64
2022/09/22 20:53:34;;;;;;;15.10;10.40;;;;;;;13.40;62.35;99526.84;226369;1236;139048;-64
2022/09/22 20:58:45;;;;;;;15.80;10.50;;;;;;;13.34;62.35;99526.49;227415;1237;138659;-63
2022/09/22 21:03:48;;;;;;;17.60;9.80;;;;;;;13.32;62.46;99526.10;226241;1248;139960;-63
2022/09/22 21:14:13;;;;;;;18.50;10.90;;;;;;;13.35;62.79;99528.77;226322;1247;138771;-63
2022/09/22 21:19:16;;;;;;;19.70;10.20;;;;;;;13.40;63.00;99522.91;226325;1239;138912;-63
2022/09/22 21:24:19;;;;;;;13.90;10.10;;;;;;;13.44;62.95;99526.23;226506;1249;139406;-63
2022/09/22 21:29:22;;;;;;;13.80;10.00;;;;;;;13.41;62.71;99525.14;226303;1251;139118;-63
2022/09/22 21:34:25;;;;;;;19.50;10.40;;;;;;;13.37;62.86;99521.32;226310;1246;139664;-63
2022/09/22 21:39:28;;;;;;;17.40;10.40;;;;;;;13.38;62.98;99520.21;227363;1232;139133;-63
2022/09/22 21:44:31;;;;;;;17.90;10.10;;;;;;;13.36;62.96;99521.92;226311;1250;139228;-60
2022/09/22 21:49:34;;;;;;;16.20;9.00;;;;;;;13.29;62.84;99521.13;226385;1241;139317;-61
2022/09/22 21:54:37;;;;;;;15.60;10.00;;;;;;;13.24;62.87;99524.63;226319;1238;139332;-62
2022/09/22 21:59:40;;;;;;;16.90;9.60;;;;;;;13.23;62.97;99522.92;226264;1249;138923;-62
2022/09/22 22:04:42;;;;;;;16.70;10.40;;;;;;;13.22;63.18;99519.05;226391;1243;138788;-63
2022/09/22 22:09:45;;;;;;;18.20;10.20;;;;;;;13.18;63.29;99516.09;226337;1243;138973;-63
2022/09/22 22:14:48;;;;;;;15.40;10.30;;;;;;;13.16;63.46;99510.92;227293;1236;139468;-63
2022/09/22 22:19:51;;;;;;;15.10;9.90;;;;;;;13.16;63.63;99502.73;226281;1243;138967;-64
2022/09/22 22:24:54;;;;;;;15.10;10.10;;;;;;;13.17;63.65;99507.45;226602;1243;139163;-62
2022/09/22 22:29:57;;;;;;;16.50;10.40;;;;;;;13.18;63.68;99508.45;226542;1241;139153;-62
2022/09/22 22:35:00;;;;;;;17.00;10.70;;;;;;;13.16;63.67;99508.80;226450;1241;138975;-63
2022/09/22 22:40:03;;;;;;;15.90;10.10;;;;;;;13.19;63.81;99503.05;227582;1228;139746;-63
2022/09/22 22:45:07;;;;;;;18.40;10.60;;;;;;;13.23;63.82;99500.66;226264;1237;140433;-63
2022/09/22 22:50:10;;;;;;;17.60;10.50;;;;;;;13.19;63.66;99493.58;226302;1249;139834;-63
2022/09/22 22:55:13;;;;;;;19.50;10.60;;;;;;;13.12;63.77;99491.02;226385;1250;139490;-63
2022/09/22 23:00:16;;;;;;;21.50;11.80;;;;;;;13.06;63.79;99491.80;227591;1229;139430;-63
2022/09/22 23:05:19;;;;;;;20.60;11.90;;;;;;;13.00;63.90;99491.12;226437;1242;139935;-63
2022/09/22 23:10:24;;;;;;;19.50;11.30;;;;;;;12.98;64.12;99485.14;227544;1234;139352;-63
2022/09/22 23:15:26;;;;;;;17.80;11.50;;;;;;;12.97;64.06;99482.94;227549;1233;139022;-63
2022/09/22 23:20:29;;;;;;;22.90;12.90;;;;;;;12.94;64.11;99477.42;226411;1244;139462;-62
2022/09/22 23:25:34;;;;;;;23.40;14.10;;;;;;;12.95;63.99;99475.06;227556;1234;140964;-63
2022/09/22 23:30:37;;;;;;;16.80;11.50;;;;;;;13.00;64.25;99473.25;226629;1234;139114;-63
2022/09/22 23:35:40;;;;;;;17.90;11.80;;;;;;;13.04;64.35;99475.70;227476;1232;139160;-63
2022/09/22 23:40:44;;;;;;;19.50;12.70;;;;;;;13.07;64.35;99473.53;226347;1239;138997;-62
2022/09/22 23:45:48;;;;;;;20.20;12.20;;;;;;;13.05;64.22;99470.86;227383;1232;139318;-62
2022/09/22 23:50:53;;;;;;;20.80;12.30;;;;;;;12.97;64.11;99468.80;227564;1234;139422;-63
2022/09/22 23:55:56;;;;;;;21.00;12.00;;;;;;;12.91;63.97;99471.55;226583;1241;141510;-63
